Time;durP1;ratioP1;P1;durP2;ratioP2;P2;SDS_P1;SDS_P2;PMS_P1;PMS_P2;Temp;Humidity;BMP_temperature;BMP_pressure;BME280_temperature;BME280_humidity;BME280_pressure;Samples;Min_cycle;Max_cycle;Signal;HPM_P1;HPM_P2
2022/10/17 00:02:16;;;;;;;12.02;6.00;;;15.20;99.90;;;;;;5011241;28;20651;-63
2022/10/17 00:04:42;;;;;;;14.57;6.40;;;15.20;99.90;;;;;;5013551;28;20317;-63
2022/10/17 00:07:07;;;;;;;17.35;6.43;;;15.20;99.90;;;;;;5009292;28;20200;-63
2022/10/17 00:09:33;;;;;;;15.18;7.00;;;15.10;99.90;;;;;;5022952;28;20191;-62
2022/10/17 00:11:59;;;;;;;14.75;6.20;;;15.10;99.90;;;;;;5009756;28;20333;-63
2022/10/17 00:14:24;;;;;;;13.00;6.55;;;15.10;99.90;;;;;;5012045;28;20653;-64
2022/10/17 00:16:50;;;;;;;10.13;5.80;;;15.00;99.90;;;;;;5008698;28;20180;-64
2022/10/17 00:19:16;;;;;;;11.80;6.50;;;14.90;99.90;;;;;;5006544;28;20618;-65
2022/10/17 00:21:42;;;;;;;15.98;6.10;;;14.90;99.90;;;;;;5005254;28;20284;-64
2022/10/17 00:24:07;;;;;;;12.48;6.10;;;14.90;99.90;;;;;;5004862;28;20177;-64
2022/10/17 00:26:33;;;;;;;13.77;6.30;;;14.90;99.90;;;;;;5006513;28;20649;-64
2022/10/17 00:28:59;;;;;;;16.60;6.63;;;14.90;99.90;;;;;;5012409;28;20177;-62
2022/10/17 00:31:25;;;;;;;9.90;5.88;;;14.90;99.90;;;;;;5022825;28;20208;-62
2022/10/17 00:33:51;;;;;;;10.93;6.25;;;14.90;99.90;;;;;;5008738;28;20184;-62
2022/10/17 00:36:20;;;;;;;10.75;6.20;;;14.80;99.90;;;;;;5007366;28;20195;-62
2022/10/17 00:38:49;;;;;;;16.27;6.50;;;14.80;99.90;;;;;;5027121;28;20250;-62
2022/10/17 00:41:18;;;;;;;14.65;6.68;;;14.80;99.90;;;;;;5008695;28;20185;-62
2022/10/17 00:44:02;;;;;;;14.55;6.70;;;14.80;99.90;;;;;;5010811;28;20200;-63
2022/10/17 00:46:38;;;;;;;13.68;6.72;;;14.80;99.90;;;;;;5015223;28;20271;-62
2022/10/17 00:49:07;;;;;;;11.35;6.55;;;14.80;99.90;;;;;;4994060;28;20187;-63
2022/10/17 00:51:39;;;;;;;13.48;6.38;;;14.80;99.90;;;;;;5015409;28;20204;-63
2022/10/17 00:54:06;;;;;;;13.43;6.25;;;14.80;99.90;;;;;;5010605;28;20196;-63
2022/10/17 00:56:32;;;;;;;13.32;6.68;;;14.80;99.90;;;;;;5014743;28;20681;-63
2022/10/17 00:58:58;;;;;;;10.90;6.80;;;14.80;99.90;;;;;;5011277;28;20188;-62
2022/10/17 01:01:24;;;;;;;11.00;7.13;;;14.80;99.90;;;;;;5028931;28;20200;-63
2022/10/17 01:03:50;;;;;;;16.25;7.28;;;14.80;99.90;;;;;;5009553;28;20185;-63
2022/10/17 01:06:17;;;;;;;10.98;6.97;;;14.70;99.90;;;;;;5013681;28;20176;-62
2022/10/17 01:08:43;;;;;;;18.95;7.70;;;14.70;99.90;;;;;;4994412;28;20315;-62
2022/10/17 01:11:32;;;;;;;13.73;7.60;;;14.70;99.90;;;;;;5009215;28;20270;-62
2022/10/17 01:14:02;;;;;;;16.48;8.40;;;14.60;99.90;;;;;;5009515;28;20192;-62
2022/10/17 01:16:51;;;;;;;13.43;7.72;;;14.60;99.90;;;;;;5014498;28;20184;-62
2022/10/17 01:19:45;;;;;;;13.70;7.90;;;14.60;99.90;;;;;;5010774;28;20750;-63
2022/10/17 01:22:53;;;;;;;15.07;8.25;;;14.50;99.90;;;;;;5013481;28;20638;-63
2022/10/17 01:25:35;;;;;;;19.33;8.13;;;14.50;99.90;;;;;;5009238;28;20176;-63
2022/10/17 01:28:16;;;;;;;11.75;8.68;;;14.50;99.90;;;;;;5025768;28;20195;-62
2022/10/17 01:31:07;;;;;;;15.35;8.70;;;14.50;99.90;;;;;;5031762;28;20227;-62
2022/10/17 01:33:46;;;;;;;15.82;8.90;;;14.50;99.90;;;;;;5028410;28;20238;-63
2022/10/17 01:36:21;;;;;;;14.48;9.07;;;14.50;99.90;;;;;;5027379;28;20259;-63
2022/10/17 01:39:22;;;;;;;15.10;9.60;;;14.50;99.90;;;;;;5010976;28;20283;-63
2022/10/17 01:42:01;;;;;;;17.35;9.23;;;14.50;99.90;;;;;;5027491;28;20618;-63
2022/10/17 01:44:35;;;;;;;14.20;9.48;;;14.50;99.90;;;;;;5010791;28;20242;-63
2022/10/17 01:47:06;;;;;;;15.73;9.65;;;14.50;99.90;;;;;;4994168;28;20809;-63
2022/10/17 01:49:36;;;;;;;15.18;9.85;;;14.50;99.90;;;;;;5009629;28;20272;-63
2022/10/17 01:52:13;;;;;;;14.20;10.20;;;14.50;99.90;;;;;;5003792;28;20215;-63
2022/10/17 01:54:42;;;;;;;16.85;10.55;;;14.50;99.90;;;;;;5008617;28;20227;-66
2022/10/17 01:57:19;;;;;;;20.10;10.20;;;14.50;99.90;;;;;;5004481;28;20238;-63
2022/10/17 01:59:48;;;;;;;14.98;10.27;;;14.50;99.90;;;;;;5007367;28;20187;-66
2022/10/17 02:02:16;;;;;;;15.52;10.18;;;14.60;99.90;;;;;;4980919;28;20181;-62
2022/10/17 02:04:43;;;;;;;25.20;11.57;;;14.60;99.90;;;;;;5014522;28;20696;-63
2022/10/17 02:07:10;;;;;;;17.15;11.45;;;14.60;99.90;;;;;;4994409;28;20614;-63
2022/10/17 02:09:36;;;;;;;17.58;11.63;;;14.60;99.90;;;;;;5020193;28;20197;-62
2022/10/17 02:12:11;;;;;;;17.42;11.35;;;14.60;99.90;;;;;;5012585;28;20208;-63
2022/10/17 02:15:05;;;;;;;22.15;11.90;;;14.60;99.90;;;;;;4998204;28;20237;-63
2022/10/17 02:17:52;;;;;;;18.83;11.48;;;14.60;99.90;;;;;;5007836;28;20185;-63
2022/10/17 02:20:32;;;;;;;23.38;11.98;;;14.70;99.90;;;;;;5000371;28;20212;-64
2022/10/17 02:23:11;;;;;;;14.55;11.60;;;14.60;99.90;;;;;;4991523;28;20598;-63
2022/10/17 02:25:44;;;;;;;17.35;11.65;;;14.70;99.90;;;;;;4992144;28;20181;-62
2022/10/17 02:28:28;;;;;;;18.52;12.27;;;14.70;99.90;;;;;;5006843;28;20235;-63
2022/10/17 02:31:05;;;;;;;17.92;12.40;;;14.70;99.90;;;;;;5009158;28;20223;-63
2022/10/17 02:33:51;;;;;;;16.35;11.85;;;14.70;99.90;;;;;;5014130;28;20184;-63
2022/10/17 02:36:25;;;;;;;16.27;11.77;;;14.70;99.90;;;;;;5013308;28;20184;-63
2022/10/17 02:38:53;;;;;;;18.30;12.77;;;14.70;99.90;;;;;;5006921;28;20185;-64
2022/10/17 02:41:20;;;;;;;19.90;12.73;;;14.70;99.90;;;;;;5007904;28;20188;-62
2022/10/17 02:43:48;;;;;;;19.15;13.15;;;14.80;99.90;;;;;;5007938;28;20215;-63
2022/10/17 02:46:19;;;;;;;18.45;12.68;;;14.80;99.90;;;;;;5012978;28;20204;-63
2022/10/17 02:48:58;;;;;;;19.33;13.32;;;14.80;99.90;;;;;;5013113;28;20554;-64
2022/10/17 02:51:34;;;;;;;19.40;13.68;;;14.80;99.90;;;;;;5008703;28;20567;-63
2022/10/17 02:54:33;;;;;;;17.90;13.00;;;14.80;99.90;;;;;;5013728;28;20192;-64
2022/10/17 02:57:07;;;;;;;19.83;13.43;;;14.80;99.90;;;;;;5008096;28;20178;-64
2022/10/17 02:59:35;;;;;;;19.00;14.13;;;14.80;99.90;;;;;;5010889;28;21817;-66
2022/10/17 03:02:05;;;;;;;19.58;14.40;;;14.80;99.90;;;;;;5021267;28;20272;-64
2022/10/17 03:04:32;;;;;;;21.92;14.10;;;14.80;99.90;;;;;;5008389;28;20184;-66
2022/10/17 03:06:58;;;;;;;20.48;14.85;;;14.80;99.90;;;;;;5003099;28;20534;-63
2022/10/17 03:09:24;;;;;;;28.85;15.35;;;14.90;99.90;;;;;;5008358;28;20188;-64
2022/10/17 03:11:50;;;;;;;21.70;14.77;;;14.90;99.90;;;;;;4984580;28;20701;-65
2022/10/17 03:14:17;;;;;;;20.50;14.13;;;14.90;99.90;;;;;;5024997;28;20207;-64
2022/10/17 03:16:43;;;;;;;18.83;14.80;;;15.00;99.90;;;;;;4994572;28;20185;-63
2022/10/17 03:19:08;;;;;;;21.92;15.02;;;15.00;99.90;;;;;;5017387;28;20184;-63
2022/10/17 03:21:36;;;;;;;19.60;15.10;;;15.10;99.90;;;;;;5022119;28;20358;-62
2022/10/17 03:24:02;;;;;;;23.45;15.13;;;15.10;99.90;;;;;;5007175;28;20177;-62
2022/10/17 03:26:28;;;;;;;19.60;15.02;;;15.10;99.90;;;;;;5008648;28;20237;-63
2022/10/17 03:28:55;;;;;;;20.98;15.02;;;15.20;99.90;;;;;;4990072;28;20555;-62
2022/10/17 03:31:22;;;;;;;29.00;15.80;;;15.20;99.90;;;;;;5010917;28;20223;-62
2022/10/17 03:33:49;;;;;;;22.58;14.68;;;15.20;99.90;;;;;;5008476;28;20231;-62
2022/10/17 03:36:16;;;;;;;20.20;15.30;;;15.20;99.90;;;;;;4997518;28;20188;-62
2022/10/17 03:38:44;;;;;;;20.83;14.98;;;15.30;99.90;;;;;;5011016;28;20665;-64
2022/10/17 03:41:10;;;;;;;21.80;15.00;;;15.30;99.90;;;;;;5006833;28;20188;-61
2022/10/17 03:43:41;;;;;;;20.05;15.23;;;15.30;99.90;;;;;;5012071;28;20189;-63
2022/10/17 03:46:07;;;;;;;19.48;14.50;;;15.30;99.90;;;;;;5008399;28;20193;-62
2022/10/17 03:48:33;;;;;;;24.58;15.55;;;15.30;99.90;;;;;;5027730;28;20240;-63
2022/10/17 03:51:01;;;;;;;27.58;15.13;;;15.40;99.90;;;;;;5011094;28;20295;-62
2022/10/17 03:53:29;;;;;;;21.23;15.25;;;15.40;99.90;;;;;;5010166;28;20649;-63
2022/10/17 03:56:07;;;;;;;20.10;15.10;;;15.40;99.90;;;;;;5006946;28;20188;-63
2022/10/17 03:58:33;;;;;;;19.50;14.30;;;15.40;99.90;;;;;;5009689;28;20204;-63
2022/10/17 04:01:04;;;;;;;20.20;15.00;;;15.50;99.90;;;;;;5010774;28;20199;-62
2022/10/17 04:03:30;;;;;;;23.23;14.77;;;15.40;99.90;;;;;;5013289;28;20634;-62
2022/10/17 04:06:01;;;;;;;19.48;14.57;;;15.40;99.90;;;;;;5025433;28;20199;-63
2022/10/17 04:08:30;;;;;;;20.48;14.10;;;15.50;99.90;;;;;;5023073;28;20191;-62
2022/10/17 04:11:08;;;;;;;21.95;15.05;;;15.50;99.90;;;;;;5026580;28;20204;-62
2022/10/17 04:13:35;;;;;;;21.45;14.68;;;15.50;99.90;;;;;;5012372;28;20184;-63
2022/10/17 04:16:06;;;;;;;21.15;14.80;;;15.50;99.90;;;;;;5013022;28;20199;-63
2022/10/17 04:18:34;;;;;;;21.77;14.10;;;15.50;99.90;;;;;;5016807;28;20610;-63
2022/10/17 04:21:01;;;;;;;21.38;14.82;;;15.50;99.90;;;;;;5020447;28;20719;-62
2022/10/17 04:23:28;;;;;;;24.13;15.00;;;15.50;99.90;;;;;;5010837;28;20202;-63
2022/10/17 04:26:00;;;;;;;23.10;15.00;;;15.50;99.90;;;;;;5009213;28;20649;-63
2022/10/17 04:28:27;;;;;;;23.00;15.13;;;15.50;99.90;;;;;;5005718;28;20184;-63
2022/10/17 04:31:06;;;;;;;22.92;15.77;;;15.50;99.90;;;;;;5005265;28;20180;-63
2022/10/17 04:33:39;;;;;;;21.27;14.85;;;15.60;99.90;;;;;;4992665;28;20188;-63
2022/10/17 04:36:10;;;;;;;22.17;15.95;;;15.60;99.90;;;;;;5010971;28;20275;-63
2022/10/17 04:38:36;;;;;;;24.10;15.40;;;15.60;99.90;;;;;;5022376;28;20182;-63
2022/10/17 04:41:06;;;;;;;22.35;15.35;;;15.60;99.90;;;;;;5007656;28;20230;-62
2022/10/17 04:43:35;;;;;;;22.67;14.70;;;15.60;99.90;;;;;;5001460;28;20176;-58
2022/10/17 04:46:02;;;;;;;23.15;15.35;;;15.60;99.90;;;;;;5010429;28;20234;-60
2022/10/17 04:48:29;;;;;;;19.42;15.13;;;15.60;99.90;;;;;;5004852;28;20227;-63
2022/10/17 04:51:06;;;;;;;19.52;15.20;;;15.60;99.90;;;;;;5006160;28;20677;-63
2022/10/17 04:53:40;;;;;;;24.88;14.23;;;15.60;99.90;;;;;;5003978;28;20743;-67
2022/10/17 04:56:10;;;;;;;23.35;14.85;;;15.70;99.90;;;;;;5006986;28;20188;-63
2022/10/17 04:58:36;;;;;;;24.30;15.50;;;15.70;99.90;;;;;;5011246;28;20193;-63
2022/10/17 05:01:11;;;;;;;19.15;13.82;;;15.70;99.90;;;;;;5010278;28;20264;-63
2022/10/17 05:03:40;;;;;;;20.40;14.57;;;15.80;99.90;;;;;;5011481;28;20207;-61
2022/10/17 05:06:08;;;;;;;23.00;14.23;;;15.80;99.90;;;;;;5011243;28;20200;-58
2022/10/17 05:08:34;;;;;;;20.73;14.60;;;15.80;99.90;;;;;;5010890;28;20608;-61
2022/10/17 05:11:01;;;;;;;21.45;14.55;;;15.80;99.90;;;;;;5009553;28;20591;-61
2022/10/17 05:13:27;;;;;;;20.05;13.95;;;15.80;99.90;;;;;;5008292;28;20192;-58
2022/10/17 05:15:57;;;;;;;20.05;14.18;;;15.90;99.90;;;;;;5010480;28;20279;-57
2022/10/17 05:18:23;;;;;;;21.15;15.18;;;15.80;99.90;;;;;;5011270;28;20181;-57
2022/10/17 05:20:49;;;;;;;18.65;13.50;;;15.90;99.90;;;;;;5010881;28;20176;-58
2022/10/17 05:23:14;;;;;;;19.20;13.68;;;15.90;99.90;;;;;;5009349;28;20189;-59
2022/10/17 05:25:42;;;;;;;20.13;13.52;;;15.90;99.90;;;;;;5010147;28;20223;-59
2022/10/17 05:28:07;;;;;;;22.08;13.75;;;15.90;99.90;;;;;;5007276;28;20189;-58
2022/10/17 05:30:35;;;;;;;23.13;13.55;;;16.00;99.90;;;;;;4995792;28;20231;-56
2022/10/17 05:33:01;;;;;;;22.83;14.35;;;16.00;99.90;;;;;;4994469;28;20225;-59
2022/10/17 05:35:27;;;;;;;18.35;13.43;;;16.00;99.90;;;;;;5014417;28;20189;-60
2022/10/17 05:37:54;;;;;;;22.05;13.88;;;16.00;99.90;;;;;;4994368;28;20197;-61
2022/10/17 05:40:23;;;;;;;22.65;12.73;;;16.00;99.90;;;;;;5008779;28;20642;-63
2022/10/17 05:42:51;;;;;;;20.08;13.90;;;16.10;99.90;;;;;;5007902;28;20632;-55
2022/10/17 05:45:18;;;;;;;22.38;13.48;;;16.10;99.90;;;;;;5014593;28;20312;-58
2022/10/17 05:47:45;;;;;;;19.13;13.70;;;16.10;99.90;;;;;;5013617;28;20236;-61
2022/10/17 05:50:11;;;;;;;22.40;13.77;;;16.10;99.90;;;;;;5008918;28;20246;-69
2022/10/17 05:52:55;;;;;;;19.92;13.85;;;16.10;99.90;;;;;;5014470;28;20238;-69
2022/10/17 05:55:22;;;;;;;23.17;14.45;;;16.10;99.90;;;;;;4997449;28;20192;-59
2022/10/17 05:57:51;;;;;;;20.15;13.77;;;16.10;99.90;;;;;;5013963;28;20180;-62
2022/10/17 06:00:17;;;;;;;18.05;13.43;;;16.10;99.90;;;;;;5009024;28;20217;-60
2022/10/17 06:02:52;;;;;;;22.80;13.80;;;16.10;99.90;;;;;;4986218;28;20316;-62
2022/10/17 06:05:19;;;;;;;22.05;14.27;;;16.10;99.90;;;;;;5013057;28;20199;-61
2022/10/17 06:07:45;;;;;;;22.90;14.10;;;16.10;99.90;;;;;;5012903;28;20191;-52
2022/10/17 06:10:15;;;;;;;21.65;13.90;;;16.10;99.90;;;;;;5009173;28;20195;-62
2022/10/17 06:12:42;;;;;;;21.95;13.43;;;16.10;99.90;;;;;;5011756;28;20220;-62
2022/10/17 06:15:08;;;;;;;20.13;12.95;;;16.10;99.90;;;;;;5014132;28;20674;-65
2022/10/17 06:17:34;;;;;;;23.50;13.77;;;16.10;99.90;;;;;;5002870;28;20650;-64
2022/10/17 06:20:00;;;;;;;24.08;13.52;;;16.10;99.90;;;;;;5010712;28;20239;-64
2022/10/17 06:22:26;;;;;;;22.77;13.63;;;16.10;99.90;;;;;;5007931;28;20296;-65
2022/10/17 06:24:52;;;;;;;23.90;13.63;;;16.10;99.90;;;;;;5012673;28;20185;-65
2022/10/17 06:27:18;;;;;;;22.00;14.77;;;16.10;99.90;;;;;;5016618;28;20259;-70
2022/10/17 06:29:46;;;;;;;17.23;13.38;;;16.10;99.90;;;;;;4984085;28;20190;-64
2022/10/17 06:32:12;;;;;;;24.00;14.07;;;16.10;99.90;;;;;;5012523;28;20674;-60
2022/10/17 06:34:39;;;;;;;20.92;14.20;;;16.10;99.90;;;;;;5018024;28;20180;-60
2022/10/17 06:37:05;;;;;;;20.58;13.35;;;16.10;99.90;;;;;;4990179;28;20246;-63
2022/10/17 06:39:34;;;;;;;23.95;14.50;;;16.10;99.90;;;;;;5000727;28;20189;-63
2022/10/17 06:42:12;;;;;;;20.08;13.52;;;16.10;99.90;;;;;;5004337;28;20235;-63
2022/10/17 06:44:57;;;;;;;20.92;13.63;;;16.00;99.90;;;;;;4984178;28;20197;-63
2022/10/17 06:47:42;;;;;;;21.88;13.80;;;16.10;99.90;;;;;;5010189;28;20239;-63
2022/10/17 06:50:31;;;;;;;20.10;14.68;;;16.10;99.90;;;;;;5022992;28;20200;-63
2022/10/17 06:53:15;;;;;;;23.02;14.35;;;16.10;99.90;;;;;;5007664;28;20194;-62
2022/10/17 06:55:54;;;;;;;23.58;14.43;;;16.10;99.90;;;;;;4999452;28;20208;-62
2022/10/17 06:58:43;;;;;;;19.80;14.23;;;16.10;99.90;;;;;;4994078;28;20192;-62
2022/10/17 07:01:23;;;;;;;21.77;13.75;;;16.10;99.90;;;;;;4994796;28;20188;-62
2022/10/17 07:03:53;;;;;;;26.90;14.50;;;16.10;99.90;;;;;;5028850;28;20251;-62
2022/10/17 07:06:19;;;;;;;21.52;13.93;;;16.10;99.90;;;;;;4997365;28;20192;-63
2022/10/17 07:08:46;;;;;;;23.65;14.18;;;16.10;99.90;;;;;;4996648;28;20239;-64
2022/10/17 07:11:19;;;;;;;20.60;14.65;;;16.10;99.90;;;;;;4983288;28;20585;-63
2022/10/17 07:13:49;;;;;;;23.33;14.77;;;16.10;99.90;;;;;;5020737;28;20199;-63
2022/10/17 07:16:15;;;;;;;25.33;14.07;;;16.10;99.90;;;;;;5008622;28;20196;-63
2022/10/17 07:18:43;;;;;;;22.98;14.57;;;16.10;99.90;;;;;;4996918;28;20591;-61
2022/10/17 07:21:09;;;;;;;18.40;14.43;;;16.10;99.90;;;;;;5010171;28;20715;-62
2022/10/17 07:23:37;;;;;;;20.92;13.95;;;16.10;99.90;;;;;;4984808;28;20192;-62
2022/10/17 07:26:06;;;;;;;23.73;14.85;;;16.10;99.90;;;;;;5014924;28;20185;-63
2022/10/17 07:28:34;;;;;;;24.05;14.63;;;16.20;99.90;;;;;;5004171;28;20191;-63
2022/10/17 07:31:10;;;;;;;22.55;13.75;;;16.20;99.90;;;;;;5001477;28;20282;-64
2022/10/17 07:33:37;;;;;;;20.40;13.90;;;16.20;99.90;;;;;;4993196;28;20188;-59
2022/10/17 07:36:04;;;;;;;22.90;14.15;;;16.20;99.90;;;;;;5006094;28;20239;-64
2022/10/17 07:38:30;;;;;;;23.15;14.25;;;16.20;99.90;;;;;;5011614;28;20212;-63
2022/10/17 07:40:59;;;;;;;18.13;14.45;;;16.20;99.90;;;;;;5012224;28;20633;-63
2022/10/17 07:43:25;;;;;;;25.73;13.85;;;16.20;99.90;;;;;;5012106;28;20199;-62
2022/10/17 07:45:53;;;;;;;19.85;14.13;;;16.30;99.90;;;;;;5011188;28;20172;-64
2022/10/17 07:48:20;;;;;;;22.90;13.68;;;16.30;99.90;;;;;;4998211;28;20212;-63
2022/10/17 07:50:47;;;;;;;22.60;13.77;;;16.30;99.90;;;;;;4999696;28;20205;-65
2022/10/17 07:53:12;;;;;;;23.52;13.88;;;16.30;99.90;;;;;;5001653;28;20230;-64
2022/10/17 07:55:40;;;;;;;24.38;13.68;;;16.30;99.90;;;;;;5013573;28;20630;-60
2022/10/17 07:58:06;;;;;;;24.08;14.15;;;16.30;99.90;;;;;;5000731;28;20812;-65
2022/10/17 08:00:32;;;;;;;19.67;14.15;;;16.30;99.90;;;;;;5006191;28;20177;-61
2022/10/17 08:02:58;;;;;;;19.70;14.48;;;16.30;99.90;;;;;;5011762;28;20207;-60
2022/10/17 08:05:23;;;;;;;20.65;14.45;;;16.30;99.90;;;;;;5011916;28;20626;-64
2022/10/17 08:07:49;;;;;;;27.92;15.55;;;16.30;99.90;;;;;;5006287;28;20200;-58
2022/10/17 08:10:16;;;;;;;27.00;15.52;;;16.30;99.90;;;;;;5001852;28;20211;-60
2022/10/17 08:12:42;;;;;;;22.38;15.27;;;16.30;99.90;;;;;;5010810;28;20208;-60
2022/10/17 08:15:08;;;;;;;26.80;14.82;;;16.30;99.90;;;;;;5011911;28;20283;-59
2022/10/17 08:17:35;;;;;;;23.92;15.30;;;16.20;99.90;;;;;;5011012;28;20195;-61
2022/10/17 08:20:02;;;;;;;21.98;14.65;;;16.20;99.90;;;;;;4999841;28;20226;-64
2022/10/17 08:22:28;;;;;;;28.55;15.90;;;16.20;99.90;;;;;;5010915;28;20721;-62
2022/10/17 08:24:54;;;;;;;26.85;16.10;;;16.20;99.90;;;;;;5011967;28;20181;-62
2022/10/17 08:27:23;;;;;;;35.05;16.85;;;16.20;99.90;;;;;;5011561;28;20689;-61
2022/10/17 08:29:53;;;;;;;34.83;16.10;;;16.20;99.90;;;;;;5004183;28;20191;-65
2022/10/17 08:32:20;;;;;;;29.75;16.77;;;16.30;99.90;;;;;;5004145;28;20243;-62
2022/10/17 08:34:46;;;;;;;27.45;16.38;;;16.30;99.90;;;;;;5010579;28;20723;-61
2022/10/17 08:37:13;;;;;;;33.10;17.00;;;16.30;99.90;;;;;;5009953;28;20275;-61
2022/10/17 08:39:42;;;;;;;34.25;17.83;;;16.30;99.90;;;;;;5009976;28;20199;-60
2022/10/17 08:42:26;;;;;;;25.55;16.45;;;16.30;99.90;;;;;;5002142;28;20238;-58
2022/10/17 08:44:55;;;;;;;34.03;17.35;;;16.30;99.90;;;;;;5009863;28;20779;-56
2022/10/17 08:47:28;;;;;;;26.42;16.52;;;16.30;99.90;;;;;;5011026;28;20228;-59
2022/10/17 08:49:59;;;;;;;27.45;16.13;;;16.30;99.90;;;;;;5004965;28;20189;-69
2022/10/17 08:52:39;;;;;;;29.67;16.92;;;16.30;99.90;;;;;;4992923;28;20224;-68
2022/10/17 08:55:37;;;;;;;28.90;16.55;;;16.30;99.90;;;;;;5006346;28;20199;-61
2022/10/17 08:58:13;;;;;;;26.05;16.13;;;16.30;99.90;;;;;;5010613;28;20215;-65
2022/10/17 09:00:46;;;;;;;29.98;16.55;;;16.30;99.90;;;;;;5008441;28;20271;-61
2022/10/17 09:03:25;;;;;;;25.08;15.65;;;16.40;99.90;;;;;;5011856;28;20184;-61
2022/10/17 09:06:20;;;;;;;26.17;16.02;;;16.30;99.90;;;;;;5002070;28;20259;-65
2022/10/17 09:09:17;;;;;;;32.33;15.80;;;16.40;99.90;;;;;;5013327;28;20712;-63
2022/10/17 09:12:03;;;;;;;26.67;15.50;;;16.40;99.90;;;;;;5009798;28;20219;-68
2022/10/17 09:14:49;;;;;;;27.35;15.55;;;16.40;99.90;;;;;;5012162;28;20275;-62
2022/10/17 09:17:53;;;;;;;25.38;14.73;;;16.40;99.90;;;;;;5009924;28;20286;-61
2022/10/17 09:20:22;;;;;;;25.23;14.07;;;16.40;99.90;;;;;;5023071;28;20208;-58
2022/10/17 09:22:59;;;;;;;23.55;13.00;;;16.40;99.90;;;;;;5001217;28;20184;-62
2022/10/17 09:25:26;;;;;;;27.02;13.93;;;16.40;99.90;;;;;;5015408;28;20307;-58
2022/10/17 09:28:23;;;;;;;21.80;13.45;;;16.40;99.90;;;;;;5013881;28;20172;-58
2022/10/17 09:31:12;;;;;;;24.20;11.77;;;16.40;99.90;;;;;;4992242;28;20328;-59
2022/10/17 09:33:43;;;;;;;19.50;11.57;;;16.40;99.90;;;;;;5001332;28;20205;-59
2022/10/17 09:36:31;;;;;;;19.95;10.63;;;16.50;99.90;;;;;;5014389;28;20177;-60
2022/10/17 09:39:10;;;;;;;23.60;11.93;;;16.50;99.90;;;;;;5003445;28;20189;-60
2022/10/17 09:41:54;;;;;;;21.90;11.50;;;16.50;99.90;;;;;;5010212;28;20184;-59
2022/10/17 09:44:22;;;;;;;22.00;11.60;;;16.50;99.90;;;;;;4995781;28;20176;-60
2022/10/17 09:47:17;;;;;;;19.85;11.55;;;16.50;99.90;;;;;;5009448;28;20180;-60
2022/10/17 09:49:46;;;;;;;22.20;10.70;;;16.50;99.90;;;;;;5001181;28;20228;-58
2022/10/17 09:52:46;;;;;;;19.33;9.90;;;16.50;99.90;;;;;;5003608;28;20201;-60
2022/10/17 09:55:38;;;;;;;17.90;10.40;;;16.50;99.90;;;;;;5014193;28;20220;-60
2022/10/17 09:58:06;;;;;;;18.88;8.18;;;16.50;99.90;;;;;;5010730;28;20192;-60
2022/10/17 10:00:36;;;;;;;14.70;8.07;;;16.50;99.90;;;;;;5015617;28;20173;-61
2022/10/17 10:03:14;;;;;;;14.93;7.53;;;16.50;99.90;;;;;;5011291;28;20235;-60
2022/10/17 10:05:41;;;;;;;11.93;7.15;;;16.50;99.90;;;;;;5010890;28;20185;-59
2022/10/17 10:08:18;;;;;;;11.48;6.40;;;16.40;99.90;;;;;;4998100;28;20185;-63
2022/10/17 10:10:44;;;;;;;10.80;5.65;;;16.40;99.90;;;;;;5006244;28;20211;-60
2022/10/17 10:13:13;;;;;;;10.20;4.93;;;16.40;99.90;;;;;;5011935;28;20413;-60
2022/10/17 10:15:49;;;;;;;14.82;5.63;;;16.40;99.90;;;;;;5002947;28;20324;-63
2022/10/17 10:18:24;;;;;;;11.93;5.18;;;16.40;99.90;;;;;;5006727;28;20193;-60
2022/10/17 10:21:23;;;;;;;12.30;5.70;;;16.40;99.90;;;;;;5011262;28;20188;-60
2022/10/17 10:24:09;;;;;;;9.80;5.00;;;16.30;99.90;;;;;;4990233;28;20204;-60
2022/10/17 10:26:45;;;;;;;9.82;5.45;;;16.30;99.90;;;;;;5002354;28;20646;-61
2022/10/17 10:29:29;;;;;;;10.40;5.28;;;16.30;99.90;;;;;;4998954;28;20263;-64
2022/10/17 10:32:14;;;;;;;11.90;5.53;;;16.30;99.90;;;;;;5007318;28;20207;-61
2022/10/17 10:35:22;;;;;;;8.63;4.90;;;16.20;99.90;;;;;;5015445;28;20176;-60
2022/10/17 10:37:52;;;;;;;7.93;4.95;;;16.20;99.90;;;;;;5012708;28;20189;-61
2022/10/17 10:40:36;;;;;;;9.00;4.78;;;16.20;99.90;;;;;;5013703;28;20192;-62
2022/10/17 10:43:03;;;;;;;11.80;4.88;;;16.20;99.90;;;;;;5012383;28;20184;-65
2022/10/17 10:45:50;;;;;;;10.48;4.68;;;16.10;99.90;;;;;;5013946;28;20665;-67
2022/10/17 10:48:25;;;;;;;9.93;4.40;;;16.10;99.90;;;;;;4999702;28;20355;-65
2022/10/17 10:51:15;;;;;;;11.73;4.85;;;16.10;99.90;;;;;;5016555;28;20629;-62
2022/10/17 10:54:00;;;;;;;12.38;4.70;;;16.10;99.90;;;;;;5012060;28;20248;-62
2022/10/17 10:56:32;;;;;;;15.88;4.20;;;16.10;99.90;;;;;;4997363;28;20185;-63
2022/10/17 10:59:07;;;;;;;11.77;4.28;;;16.10;99.90;;;;;;5010298;28;20553;-61
2022/10/17 11:02:11;;;;;;;7.95;4.18;;;16.10;99.90;;;;;;5012171;28;20184;-62
2022/10/17 11:04:58;;;;;;;7.25;3.88;;;16.10;99.90;;;;;;5013407;28;20183;-62
2022/10/17 11:07:52;;;;;;;10.73;4.07;;;16.10;99.90;;;;;;5012143;28;20552;-63
2022/10/17 11:10:40;;;;;;;9.82;3.75;;;16.10;99.90;;;;;;5000293;28;20625;-62
2022/10/17 11:13:27;;;;;;;8.13;3.95;;;16.10;99.90;;;;;;5016529;28;20302;-62
2022/10/17 11:16:15;;;;;;;7.57;3.60;;;16.00;99.90;;;;;;4996986;28;20193;-62
2022/10/17 11:18:47;;;;;;;7.28;3.78;;;16.10;99.90;;;;;;5002552;28;20203;-61
2022/10/17 11:21:27;;;;;;;7.82;3.50;;;16.10;99.90;;;;;;5012541;28;20260;-62
2022/10/17 11:23:53;;;;;;;8.75;4.10;;;16.10;99.90;;;;;;5010851;28;20179;-62
2022/10/17 11:26:26;;;;;;;11.43;3.55;;;16.10;99.90;;;;;;5010878;28;20348;-62
2022/10/17 11:28:56;;;;;;;6.95;3.00;;;16.10;99.90;;;;;;5013006;28;20161;-61
2022/10/17 11:31:30;;;;;;;9.27;3.67;;;16.10;99.90;;;;;;5011440;28;21298;-66
2022/10/17 11:34:04;;;;;;;7.75;3.60;;;16.10;99.90;;;;;;5005080;28;20195;-66
2022/10/17 11:36:33;;;;;;;10.48;3.60;;;16.20;99.90;;;;;;5006721;28;20691;-63
2022/10/17 11:39:04;;;;;;;8.60;3.40;;;16.20;99.90;;;;;;5010982;28;20204;-63
2022/10/17 11:42:05;;;;;;;6.97;3.33;;;16.20;99.90;;;;;;5011915;28;20188;-63
2022/10/17 11:44:35;;;;;;;5.80;3.13;;;16.20;99.90;;;;;;5009563;28;20240;-64
2022/10/17 11:47:25;;;;;;;13.05;3.15;;;16.30;99.90;;;;;;5003354;28;20246;-61
2022/10/17 11:49:57;;;;;;;16.17;8.80;;;16.30;99.90;;;;;;5009848;28;20258;-62
2022/10/17 11:52:51;;;;;;;10.00;3.05;;;16.40;99.90;;;;;;5011421;28;20688;-62
2022/10/17 11:55:21;;;;;;;8.10;3.30;;;16.40;99.90;;;;;;5009304;28;20180;-64
2022/10/17 11:58:08;;;;;;;4.55;2.60;;;16.50;99.90;;;;;;5005828;28;20263;-62
2022/10/17 12:00:50;;;;;;;7.32;3.50;;;16.50;99.90;;;;;;5013777;28;20335;-62
2022/10/17 12:03:43;;;;;;;4.82;2.53;;;16.50;99.90;;;;;;5011610;28;20195;-63
2022/10/17 12:06:43;;;;;;;5.70;4.20;;;16.50;99.90;;;;;;5006786;28;20219;-63
2022/10/17 12:09:33;;;;;;;7.53;2.92;;;16.50;99.90;;;;;;4989586;28;20589;-62
2022/10/17 12:12:02;;;;;;;6.18;3.00;;;16.50;99.90;;;;;;5011268;28;20209;-62
2022/10/17 12:14:37;;;;;;;6.95;2.85;;;16.60;99.90;;;;;;5014051;28;20246;-62
2022/10/17 12:17:05;;;;;;;6.38;3.10;;;16.60;99.90;;;;;;5004719;28;20263;-63
2022/10/17 12:19:33;;;;;;;8.18;2.97;;;16.60;99.90;;;;;;4994993;28;20191;-63
2022/10/17 12:22:17;;;;;;;6.32;2.92;;;16.60;99.90;;;;;;5006551;28;20236;-62
2022/10/17 12:24:51;;;;;;;7.82;3.65;;;16.60;99.90;;;;;;5012336;28;20169;-62
2022/10/17 12:27:34;;;;;;;5.35;3.60;;;16.70;99.90;;;;;;5010507;28;20630;-63
2022/10/17 12:30:05;;;;;;;8.93;2.92;;;16.70;99.90;;;;;;4994058;28;20231;-63
2022/10/17 12:32:32;;;;;;;5.63;2.80;;;16.80;99.90;;;;;;5001867;28;20616;-62
2022/10/17 12:34:58;;;;;;;7.63;3.30;;;16.80;99.90;;;;;;5000032;28;20211;-63
2022/10/17 12:37:50;;;;;;;5.18;2.72;;;16.80;99.90;;;;;;5003693;28;20188;-63
2022/10/17 12:40:34;;;;;;;7.35;3.13;;;16.80;99.90;;;;;;5006514;28;20258;-62
2022/10/17 12:43:12;;;;;;;5.07;2.70;;;16.90;99.90;;;;;;5016003;28;20274;-62
2022/10/17 12:45:47;;;;;;;4.25;2.50;;;16.90;99.90;;;;;;5015192;28;20187;-62
2022/10/17 12:48:35;;;;;;;3.83;2.40;;;16.90;99.90;;;;;;5014381;28;20648;-62
2022/10/17 12:51:13;;;;;;;4.95;2.58;;;17.00;99.90;;;;;;5013197;28;20338;-63
2022/10/17 12:53:45;;;;;;;6.00;2.80;;;17.00;99.90;;;;;;5010176;28;20199;-63
2022/10/17 12:56:13;;;;;;;5.20;2.45;;;17.10;99.90;;;;;;5006583;28;20270;-63
2022/10/17 12:58:48;;;;;;;5.97;1.98;;;17.10;99.90;;;;;;4996623;28;20189;-64
2022/10/17 13:01:25;;;;;;;6.88;2.60;;;17.10;99.90;;;;;;4998143;28;20170;-63
2022/10/17 13:03:52;;;;;;;7.25;2.30;;;17.10;99.90;;;;;;5016621;28;20215;-62
2022/10/17 13:06:29;;;;;;;4.63;2.45;;;17.20;99.90;;;;;;5012222;28;20184;-63